ADDS METAR Data INFO
IDs: Format: Raw Decoded Include TAF

Data at: 1550 UTC 12 Dec 2017

KHAE 121535Z AUTO 31010KT 10SM CLR M03/M11 A3027 RMK AO2
KHAE 121515Z AUTO 31011KT 10SM CLR M03/M11 A3026 RMK AO2
KHAE 121455Z AUTO 31012KT 10SM CLR M04/M11 A3026 RMK AO2
KHAE 121435Z AUTO 31010G14KT 10SM CLR M04/M10 A3026 RMK AO2
KHAE 121415Z AUTO 30009G15KT 10SM CLR M05/M10 A3025 RMK AO2
KHAE 121355Z AUTO 31011KT 10SM CLR M05/M10 A3026 RMK AO2
KHAE 121335Z AUTO 30008KT 10SM CLR M05/M10 A3026 RMK AO2
KHAE 121315Z AUTO 31010G15KT 10SM CLR M05/M10 A3025 RMK AO2
KHAE 121255Z AUTO 31009G16KT 10SM CLR M05/M10 A3025 RMK AO2
KHAE 121235Z AUTO 31009KT 10SM CLR M05/M09 A3025 RMK AO2
KHAE 121215Z AUTO 31008G17KT 10SM CLR M04/M09 A3025 RMK AO2
KHAE 121155Z AUTO 32012G17KT 10SM CLR M03/M09 A3023 RMK AO2
KHAE 121135Z AUTO 32010G18KT 10SM CLR M03/M09 A3022 RMK AO2
KHAE 121115Z AUTO 32011G18KT 10SM CLR M03/M09 A3021 RMK AO2
KHAE 121055Z AUTO 32010G15KT 10SM CLR M02/M09 A3021 RMK AO2
KHAE 121035Z AUTO 32010G15KT 10SM CLR M02/M09 A3020 RMK AO2
KHAE 121015Z AUTO 32012G16KT 10SM SCT027 M02/M08 A3020 RMK AO2
KHAE 120955Z AUTO 33014G20KT 10SM SCT027 M01/M08 A3019 RMK AO2
KHAE 120935Z AUTO 31012G17KT 10SM SCT029 M01/M08 A3019 RMK AO2
KHAE 120915Z AUTO 32012G21KT 10SM SCT029 M01/M08 A3018 RMK AO2
KHAE 120855Z AUTO 32015G24KT 10SM SCT029 M01/M08 A3018 RMK AO2
KHAE 120835Z AUTO 34014G22KT 10SM BKN031 00/M08 A3018 RMK AO2
KHAE 120815Z AUTO 33013G24KT 10SM OVC031 00/M08 A3016 RMK AO2
KHAE 120755Z AUTO 32019G26KT 10SM OVC031 01/M07 A3016 RMK AO2
KHAE 120735Z AUTO 31013G17KT 10SM OVC031 01/M06 A3014 RMK AO2
KHAE 120715Z AUTO 32013G22KT 10SM OVC029 02/M06 A3013 RMK AO2
KHAE 120655Z AUTO 33013G22KT 10SM OVC029 02/M06 A3012 RMK AO2
KHAE 120635Z AUTO 33012G24KT 10SM OVC029 02/M05 A3012 RMK AO2
KHAE 120615Z AUTO 32015G26KT 10SM OVC027 02/M04 A3011 RMK AO2
KHAE 120555Z AUTO 32012G16KT 10SM OVC027 03/M03 A3010 RMK AO2
KHAE 120535Z AUTO 34016G23KT 10SM OVC025 03/M03 A3010 RMK AO2
KHAE 120515Z AUTO 32016G22KT 10SM OVC025 03/M03 A3010 RMK AO2
KHAE 120455Z AUTO 32019G26KT 10SM OVC025 03/M02 A3009 RMK AO2
KHAE 120435Z AUTO 32015G26KT 10SM OVC021 04/M01 A3008 RMK AO2
KHAE 120415Z AUTO 32016G23KT 10SM OVC021 05/M01 A3007 RMK AO2
KHAE 120355Z AUTO 32016G25KT 10SM OVC021 05/M01 A3006 RMK AO2
KHAE 120335Z AUTO 32013G24KT 10SM OVC021 05/M01 A3005 RMK AO2
KHAE 120315Z AUTO 32018G26KT 10SM BKN023 OVC029 05/M01 A3004 RMK AO2
KHAE 120255Z AUTO 32018G27KT 10SM OVC027 05/M01 A3003 RMK AO2
KHAE 120235Z AUTO 32016G26KT 10SM BKN021 OVC028 05/M01 A3003 RMK AO2
KHAE 120215Z AUTO 32015G26KT 10SM OVC023 05/M01 A3001 RMK AO2
KHAE 120155Z AUTO 32014G23KT 10SM OVC025 06/M01 A3000 RMK AO2
KHAE 120135Z AUTO 32017G25KT 10SM OVC027 06/M01 A2998 RMK AO2
KHAE 120115Z AUTO 31020G28KT 10SM OVC029 06/M01 A2997 RMK AO2
KHAE 120055Z AUTO 32017G27KT 10SM OVC031 07/M01 A2996 RMK AO2
KHAE 120035Z AUTO 30016G23KT 10SM OVC033 07/M01 A2995 RMK AO2
KHAE 120015Z AUTO 31017G22KT 10SM OVC034 07/M01 A2993 RMK AO2
KHAE 112355Z AUTO 31017G25KT 10SM SCT034 BKN039 OVC048 07/M01 A2992 RMK AO2
KHAE 112335Z AUTO 31017G28KT 10SM OVC034 07/M01 A2992 RMK AO2
KHAE 112315Z AUTO 31017G29KT 10SM OVC034 07/M01 A2990 RMK AO2
KHAE 112255Z AUTO 30019G30KT 10SM OVC038 08/M01 A2989 RMK AO2
KHAE 112235Z AUTO 31022G32KT 10SM OVC040 08/M01 A2988 RMK AO2
KHAE 112215Z AUTO 31022G38KT 10SM OVC042 08/M02 A2988 RMK AO2
KHAE 112155Z AUTO 30023G29KT 10SM OVC048 09/M02 A2986 RMK AO2
KHAE 112135Z AUTO 30022G32KT 10SM BKN048 OVC060 10/M03 A2984 RMK AO2
KHAE 112115Z AUTO 30020G27KT 10SM OVC050 10/M03 A2983 RMK AO2
KHAE 112055Z AUTO 30019G31KT 10SM OVC050 10/M03 A2983 RMK AO2
KHAE 112035Z AUTO 29028G36KT 10SM OVC050 10/M04 A2980 RMK AO2
KHAE 112015Z AUTO 30022G31KT 10SM OVC050 11/M04 A2980 RMK AO2
KHAE 111955Z AUTO 29028G38KT 10SM SCT050 12/M05 A2979 RMK AO2
KHAE 111935Z AUTO 29022G33KT 10SM SCT050 12/M04 A2978 RMK AO2
KHAE 111915Z AUTO 30019G31KT 10SM CLR 12/M05 A2977 RMK AO2
KHAE 111855Z AUTO 29026G32KT 10SM CLR 11/M06 A2976 RMK AO2
KHAE 111835Z AUTO 29022G29KT 10SM CLR 11/M07 A2977 RMK AO2
KHAE 111815Z AUTO 28020G25KT 10SM CLR 11/M08 A2976 RMK AO2
KHAE 111755Z AUTO 28018G25KT 10SM CLR 10/M08 A2976 RMK AO2
KHAE 111735Z AUTO 27016G22KT 10SM CLR 09/M08 A2977 RMK AO2
KHAE 111715Z AUTO 26016G25KT 10SM CLR 08/M08 A2978 RMK AO2
KHAE 111655Z AUTO 26015G21KT 10SM CLR 08/M07 A2979 RMK AO2
KHAE 111635Z AUTO 25013G17KT 10SM CLR 07/M07 A2979 RMK AO2
KHAE 111615Z AUTO 24013G19KT 10SM CLR 08/M07 A2979 RMK AO2
KHAE 111555Z AUTO 23011G19KT 10SM CLR 08/M06 A2979 RMK AO2
KHAE 111535Z AUTO 23010KT 10SM CLR 07/M05 A2980 RMK AO2
KHAE 111515Z AUTO 22010KT 10SM CLR 06/M05 A2981 RMK AO2
KHAE 111455Z AUTO 21011KT 10SM CLR 05/M04 A2982 RMK AO2
KHAE 111435Z AUTO 20010KT 10SM CLR 03/M04 A2983 RMK AO2
KHAE 111415Z AUTO 20008KT 10SM CLR 02/M03 A2985 RMK AO2
KHAE 111355Z AUTO 18007KT 10SM SCT120 02/M05 A2986 RMK AO2
KHAE 111335Z AUTO 16007KT 10SM CLR 02/M05 A2985 RMK AO2
KHAE 111315Z AUTO 16007KT 10SM CLR 02/M05 A2988 RMK AO2
KHAE 111255Z AUTO 17008KT 10SM CLR 01/M04 A2990 RMK AO2
KHAE 111235Z AUTO 17008KT 10SM CLR 01/M05 A2992 RMK AO2
KHAE 111215Z AUTO 17008KT 10SM CLR 01/M04 A2993 RMK AO2
KHAE 111155Z AUTO 18007KT 10SM CLR 01/M04 A2994 RMK AO2
KHAE 111135Z AUTO 17006KT 10SM CLR 00/M04 A2995 RMK AO2
KHAE 111115Z AUTO 19007KT 10SM CLR 00/M04 A2997 RMK AO2
KHAE 111055Z AUTO 19006KT 10SM CLR 00/M05 A2997 RMK AO2
KHAE 111035Z AUTO 19006KT 10SM CLR 00/M05 A2998 RMK AO2
KHAE 111015Z AUTO 19006KT 10SM CLR 00/M05 A3001 RMK AO2
KHAE 110955Z AUTO 20007KT 10SM CLR M01/M05 A3002 RMK AO2
KHAE 110935Z AUTO 19006KT 10SM CLR 00/M05 A3001 RMK AO2
KHAE 110915Z AUTO 18006KT 10SM CLR 00/M05 A3002 RMK AO2
KHAE 110855Z AUTO 18005KT 10SM CLR 00/M05 A3004 RMK AO2
KHAE 110835Z AUTO 18006KT 10SM CLR 00/M05 A3004 RMK AO2
KHAE 110815Z AUTO 18006KT 10SM CLR 00/M04 A3005 RMK AO2
KHAE 110755Z AUTO 19005KT 10SM CLR 00/M05 A3005 RMK AO2
KHAE 110735Z AUTO 16005KT 10SM CLR 01/M05 A3005 RMK AO2
KHAE 110715Z AUTO 17004KT 10SM CLR 01/M05 A3007 RMK AO2
KHAE 110655Z AUTO 17003KT 10SM CLR 01/M04 A3007 RMK AO2
KHAE 110635Z AUTO 17005KT 10SM CLR 01/M05 A3008 RMK AO2
KHAE 110615Z AUTO 18004KT 10SM CLR 00/M05 A3009 RMK AO2
KHAE 110555Z AUTO 16005KT 10SM CLR 01/M05 A3009 RMK AO2
KHAE 110535Z AUTO 19004KT 10SM CLR 02/M05 A3010 RMK AO2
KHAE 110515Z AUTO 18004KT 10SM CLR 01/M06 A3011 RMK AO2
KHAE 110455Z AUTO 20004KT 10SM CLR 03/M06 A3012 RMK AO2
KHAE 110435Z AUTO 00000KT 10SM CLR 02/M05 A3012 RMK AO2
KHAE 110415Z AUTO 00000KT 10SM CLR 01/M05 A3011 RMK AO2
KHAE 110355Z AUTO 00000KT 10SM CLR 01/M06 A3012 RMK AO2